Time;durP1;ratioP1;P1;durP2;ratioP2;P2;SDS_P1;SDS_P2;PMS_P1;PMS_P2;Temp;Humidity;BMP_temperature;BMP_pressure;BME280_temperature;BME280_humidity;BME280_pressure;Samples;Min_cycle;Max_cycle;Signal;HPM_P1;HPM_P2
2022/01/11 00:00:07;;;;;;;3.92;3.53;;;;;;;;;;6203922;23;20098;-48
2022/01/11 00:02:35;;;;;;;4.15;3.40;;;;;;;;;;6204686;23;20017;-47
2022/01/11 00:05:00;;;;;;;3.70;3.33;;;;;;;;;;6176638;23;20363;-49
2022/01/11 00:07:28;;;;;;;4.03;3.63;;;;;;;;;;6203971;23;20455;-50
2022/01/11 00:09:56;;;;;;;4.95;3.58;;;;;;;;;;6203996;23;20012;-46
2022/01/11 00:12:21;;;;;;;4.38;3.67;;;;;;;;;;6203656;23;20047;-49
2022/01/11 00:14:47;;;;;;;4.75;3.83;;;;;;;;;;6203369;23;20012;-45
2022/01/11 00:17:12;;;;;;;5.68;3.85;;;;;;;;;;6203882;23;20016;-43
2022/01/11 00:19:37;;;;;;;4.82;4.15;;;;;;;;;;6204110;23;20016;-49
2022/01/11 00:22:06;;;;;;;5.05;3.80;;;;;;;;;;6205570;23;20418;-46
2022/01/11 00:24:33;;;;;;;5.38;4.40;;;;;;;;;;6203081;23;21573;-46
2022/01/11 00:27:00;;;;;;;5.15;4.25;;;;;;;;;;6204743;23;20012;-46
2022/01/11 00:29:25;;;;;;;5.40;4.22;;;;;;;;;;6202960;23;20019;-46
2022/01/11 00:31:51;;;;;;;5.57;4.32;;;;;;;;;;6204915;23;20107;-47
2022/01/11 00:34:19;;;;;;;4.97;3.90;;;;;;;;;;6203880;23;20472;-46
2022/01/11 00:36:44;;;;;;;6.80;5.60;;;;;;;;;;6208002;23;20012;-48
2022/01/11 00:39:10;;;;;;;7.90;4.68;;;;;;;;;;6206904;23;20048;-47
2022/01/11 00:41:39;;;;;;;6.03;5.15;;;;;;;;;;6206784;23;20031;-47
2022/01/11 00:44:05;;;;;;;6.00;5.13;;;;;;;;;;6202325;23;20020;-48
2022/01/11 00:46:30;;;;;;;8.25;5.00;;;;;;;;;;6206673;23;20009;-46
2022/01/11 00:48:55;;;;;;;7.35;5.63;;;;;;;;;;6206048;23;20039;-48
2022/01/11 00:51:21;;;;;;;8.70;5.57;;;;;;;;;;6206813;23;20036;-45
2022/01/11 00:53:46;;;;;;;8.82;5.78;;;;;;;;;;6206623;23;20021;-47
2022/01/11 00:56:11;;;;;;;8.23;5.95;;;;;;;;;;6207127;23;20021;-46
2022/01/11 00:58:37;;;;;;;6.93;5.18;;;;;;;;;;6206242;23;20020;-45
2022/01/11 01:01:02;;;;;;;8.73;6.18;;;;;;;;;;6207227;23;20048;-51
2022/01/11 01:03:27;;;;;;;8.20;6.00;;;;;;;;;;6205844;23;20013;-49
2022/01/11 01:05:53;;;;;;;8.27;6.43;;;;;;;;;;6207287;23;20435;-49
2022/01/11 01:08:19;;;;;;;9.48;6.47;;;;;;;;;;6205549;23;20019;-48
2022/01/11 01:10:47;;;;;;;7.88;5.93;;;;;;;;;;6207434;23;20009;-48
2022/01/11 01:13:21;;;;;;;8.73;6.07;;;;;;;;;;6205206;23;20067;-44
2022/01/11 01:15:47;;;;;;;8.60;5.50;;;;;;;;;;6207197;23;20042;-47
2022/01/11 01:18:15;;;;;;;9.20;6.38;;;;;;;;;;6204861;23;20561;-47
2022/01/11 01:20:40;;;;;;;9.65;7.00;;;;;;;;;;6206818;23;20005;-47
2022/01/11 01:23:06;;;;;;;8.98;6.28;;;;;;;;;;6207139;23;20008;-46
2022/01/11 01:25:31;;;;;;;10.13;6.25;;;;;;;;;;6206800;23;20130;-48
2022/01/11 01:27:56;;;;;;;9.60;6.45;;;;;;;;;;6206351;23;20329;-47
2022/01/11 01:30:22;;;;;;;8.95;6.07;;;;;;;;;;6206839;23;20012;-47
2022/01/11 01:32:48;;;;;;;8.20;6.10;;;;;;;;;;6205964;23;20009;-46
2022/01/11 01:35:14;;;;;;;11.98;6.80;;;;;;;;;;6206612;23;20484;-48
2022/01/11 01:37:39;;;;;;;8.68;6.03;;;;;;;;;;6206321;23;20088;-48
2022/01/11 01:40:05;;;;;;;9.52;6.40;;;;;;;;;;6207093;23;20015;-46
2022/01/11 01:42:31;;;;;;;9.75;6.93;;;;;;;;;;6206083;23;20017;-47
2022/01/11 01:44:59;;;;;;;9.13;6.00;;;;;;;;;;6207003;23;20590;-47
2022/01/11 01:47:25;;;;;;;8.70;6.50;;;;;;;;;;6205425;23;20036;-47
2022/01/11 01:49:50;;;;;;;9.90;6.25;;;;;;;;;;6206319;23;20009;-46
2022/01/11 01:52:16;;;;;;;8.10;6.18;;;;;;;;;;6205534;23;20024;-47
2022/01/11 01:54:42;;;;;;;8.52;5.47;;;;;;;;;;6206988;23;20027;-51
2022/01/11 01:57:08;;;;;;;9.10;6.15;;;;;;;;;;6205820;23;20040;-50
2022/01/11 01:59:34;;;;;;;9.70;6.47;;;;;;;;;;6206148;23;20023;-46
2022/01/11 02:01:59;;;;;;;8.90;6.20;;;;;;;;;;6205908;23;20009;-47
2022/01/11 02:04:24;;;;;;;10.82;6.25;;;;;;;;;;6206195;23;20074;-50
2022/01/11 02:06:50;;;;;;;9.82;6.15;;;;;;;;;;6205959;23;20088;-46
2022/01/11 02:09:16;;;;;;;9.07;5.82;;;;;;;;;;6206002;23;20368;-46
2022/01/11 02:11:41;;;;;;;9.70;6.60;;;;;;;;;;6205969;23;20115;-50
2022/01/11 02:14:07;;;;;;;9.05;6.30;;;;;;;;;;6206454;23;20712;-48
2022/01/11 02:16:33;;;;;;;10.32;5.70;;;;;;;;;;6205515;23;20016;-49
2022/01/11 02:18:58;;;;;;;9.18;5.95;;;;;;;;;;6205577;23;20447;-47
2022/01/11 02:21:23;;;;;;;7.97;4.97;;;;;;;;;;6205410;23;20017;-47
2022/01/11 02:23:52;;;;;;;9.30;5.72;;;;;;;;;;6206861;23;20008;-46
2022/01/11 02:26:17;;;;;;;8.68;5.88;;;;;;;;;;6204140;23;20148;-48
2022/01/11 02:28:43;;;;;;;11.93;6.28;;;;;;;;;;6206543;23;20077;-49
2022/01/11 02:31:12;;;;;;;8.63;6.53;;;;;;;;;;6204648;23;20731;-46
2022/01/11 02:33:45;;;;;;;8.20;5.18;;;;;;;;;;6206145;23;20092;-46
2022/01/11 02:36:12;;;;;;;9.02;5.72;;;;;;;;;;6204188;23;20008;-46
2022/01/11 02:38:37;;;;;;;8.90;5.25;;;;;;;;;;6205963;23;20013;-50
2022/01/11 02:41:03;;;;;;;9.48;5.30;;;;;;;;;;6178840;23;20015;-46
2022/01/11 02:43:28;;;;;;;7.10;5.38;;;;;;;;;;6205462;23;20047;-49
2022/01/11 02:45:54;;;;;;;9.27;5.03;;;;;;;;;;6206404;23;20497;-47
2022/01/11 02:48:21;;;;;;;9.27;5.50;;;;;;;;;;6204728;23;20019;-48
2022/01/11 02:50:46;;;;;;;8.48;5.53;;;;;;;;;;6205730;23;20030;-46
2022/01/11 02:53:12;;;;;;;7.93;5.75;;;;;;;;;;6205853;23;20099;-46
2022/01/11 02:55:39;;;;;;;6.20;4.50;;;;;;;;;;6205420;23;20013;-50
2022/01/11 02:58:05;;;;;;;8.32;5.35;;;;;;;;;;6206048;23;20008;-46
2022/01/11 03:00:30;;;;;;;8.32;4.45;;;;;;;;;;6204697;23;20088;-46
2022/01/11 03:02:55;;;;;;;6.90;4.78;;;;;;;;;;6206546;23;20503;-46
2022/01/11 03:05:20;;;;;;;5.93;4.05;;;;;;;;;;6204634;23;20013;-47
2022/01/11 03:07:46;;;;;;;6.90;4.78;;;;;;;;;;6206475;23;20009;-47
2022/01/11 03:10:27;;;;;;;5.93;4.50;;;;;;;;;;6205360;23;20079;-45
2022/01/11 03:12:52;;;;;;;6.10;3.83;;;;;;;;;;6187056;23;20079;-47
2022/01/11 03:15:17;;;;;;;5.57;3.90;;;;;;;;;;6176848;23;20017;-48
2022/01/11 03:17:43;;;;;;;6.20;4.03;;;;;;;;;;6178136;23;20421;-47
2022/01/11 03:20:10;;;;;;;6.68;4.88;;;;;;;;;;6177178;23;20009;-47
2022/01/11 03:22:36;;;;;;;5.88;4.28;;;;;;;;;;6177706;23;20095;-50
2022/01/11 03:25:02;;;;;;;5.97;4.63;;;;;;;;;;6178218;23;20562;-46
2022/01/11 03:27:27;;;;;;;6.57;4.15;;;;;;;;;;6176688;23;20119;-46
2022/01/11 03:29:52;;;;;;;7.47;4.85;;;;;;;;;;6178377;23;20052;-46
2022/01/11 03:32:19;;;;;;;6.93;4.75;;;;;;;;;;6175297;23;20056;-48
2022/01/11 03:34:45;;;;;;;6.88;4.55;;;;;;;;;;6178221;23;20017;-49
2022/01/11 03:37:13;;;;;;;7.05;4.57;;;;;;;;;;6177580;23;20068;-48
2022/01/11 03:39:39;;;;;;;7.45;4.93;;;;;;;;;;6208006;23;20451;-50
2022/01/11 03:42:04;;;;;;;9.27;4.38;;;;;;;;;;6207369;23;20039;-50
2022/01/11 03:44:29;;;;;;;7.15;4.15;;;;;;;;;;6207579;23;20012;-48
2022/01/11 03:46:55;;;;;;;8.35;4.70;;;;;;;;;;6206974;23;20031;-48
2022/01/11 03:49:20;;;;;;;6.55;4.18;;;;;;;;;;6206500;23;20013;-46
2022/01/11 03:51:49;;;;;;;5.03;3.95;;;;;;;;;;6205537;23;20028;-47
2022/01/11 03:54:22;;;;;;;7.13;4.37;;;;;;;;;;6205420;23;20450;-48
2022/01/11 03:56:47;;;;;;;6.07;4.43;;;;;;;;;;6205564;23;20329;-46
2022/01/11 03:59:12;;;;;;;7.15;4.82;;;;;;;;;;6203594;23;20013;-46
2022/01/11 04:01:38;;;;;;;6.60;4.50;;;;;;;;;;6205499;23;20059;-46
2022/01/11 04:04:03;;;;;;;5.72;4.22;;;;;;;;;;6206139;23;20009;-47
2022/01/11 04:06:29;;;;;;;8.55;4.65;;;;;;;;;;6204536;23;20008;-46
2022/01/11 04:08:54;;;;;;;8.15;4.95;;;;;;;;;;6206172;23;20162;-49
2022/01/11 04:11:19;;;;;;;8.60;4.65;;;;;;;;;;6204717;23;20347;-47
2022/01/11 04:13:45;;;;;;;7.82;5.20;;;;;;;;;;6206043;23;20055;-48
2022/01/11 04:16:10;;;;;;;6.97;4.25;;;;;;;;;;6205393;23;20012;-46
2022/01/11 04:18:36;;;;;;;8.27;4.88;;;;;;;;;;6205720;23;20040;-48
2022/01/11 04:21:02;;;;;;;6.90;4.18;;;;;;;;;;6205251;23;20009;-50
2022/01/11 04:23:27;;;;;;;7.10;4.07;;;;;;;;;;6205210;23;20009;-47
2022/01/11 04:25:53;;;;;;;11.80;4.75;;;;;;;;;;6205423;23;20047;-46
2022/01/11 04:28:18;;;;;;;8.88;4.57;;;;;;;;;;6205303;23;20017;-47
2022/01/11 04:30:43;;;;;;;8.10;4.68;;;;;;;;;;6205415;23;20016;-49
2022/01/11 04:33:08;;;;;;;6.47;4.13;;;;;;;;;;6205478;23;20021;-48
2022/01/11 04:35:34;;;;;;;7.03;5.03;;;;;;;;;;6205144;23;20095;-47
2022/01/11 04:37:59;;;;;;;7.70;4.80;;;;;;;;;;6205342;23;20017;-46
2022/01/11 04:40:24;;;;;;;7.07;4.97;;;;;;;;;;6205401;23;20019;-48
2022/01/11 04:42:50;;;;;;;7.30;4.22;;;;;;;;;;6205509;23;20088;-48
2022/01/11 04:45:16;;;;;;;6.13;4.30;;;;;;;;;;6203218;23;20063;-49
2022/01/11 04:47:41;;;;;;;6.53;4.28;;;;;;;;;;6206567;23;20016;-47
2022/01/11 04:50:08;;;;;;;7.72;4.88;;;;;;;;;;6148486;23;1312808;-50
2022/01/11 04:52:33;;;;;;;6.30;4.50;;;;;;;;;;6206503;23;20021;-48
2022/01/11 04:54:59;;;;;;;5.68;4.00;;;;;;;;;;6207246;23;20013;-48
2022/01/11 04:57:24;;;;;;;9.18;4.35;;;;;;;;;;6206445;23;20015;-45
2022/01/11 04:59:49;;;;;;;7.10;4.10;;;;;;;;;;6205898;23;20062;-48
2022/01/11 05:02:14;;;;;;;6.38;4.25;;;;;;;;;;6206476;23;20004;-46
2022/01/11 05:04:40;;;;;;;7.88;3.85;;;;;;;;;;6206520;23;20115;-46
2022/01/11 05:07:05;;;;;;;6.43;4.30;;;;;;;;;;6206787;23;20457;-49
2022/01/11 05:09:30;;;;;;;7.38;5.45;;;;;;;;;;6206038;23;20012;-49
2022/01/11 05:11:55;;;;;;;6.90;4.38;;;;;;;;;;6207494;23;20537;-45
2022/01/11 05:14:21;;;;;;;6.30;4.00;;;;;;;;;;6206200;23;20016;-47
2022/01/11 05:16:46;;;;;;;8.50;4.55;;;;;;;;;;6207455;23;20509;-48
2022/01/11 05:19:12;;;;;;;7.38;4.63;;;;;;;;;;6206942;23;20099;-45
2022/01/11 05:21:41;;;;;;;9.75;5.40;;;;;;;;;;6206067;23;20017;-49
2022/01/11 05:24:07;;;;;;;7.90;5.20;;;;;;;;;;6207264;23;20016;-47
2022/01/11 05:26:32;;;;;;;8.38;4.35;;;;;;;;;;6205618;23;20218;-46
2022/01/11 05:28:58;;;;;;;8.63;5.40;;;;;;;;;;6207006;23;20009;-45
2022/01/11 05:31:23;;;;;;;7.10;4.30;;;;;;;;;;6205780;23;20012;-45
2022/01/11 05:33:49;;;;;;;10.43;4.90;;;;;;;;;;6206506;23;20044;-45
2022/01/11 05:36:14;;;;;;;7.75;5.30;;;;;;;;;;6205997;23;20016;-45
2022/01/11 05:38:39;;;;;;;10.30;5.85;;;;;;;;;;6206439;23;20012;-47
2022/01/11 05:41:06;;;;;;;7.97;4.80;;;;;;;;;;6206030;23;20095;-48
2022/01/11 05:43:31;;;;;;;8.43;4.72;;;;;;;;;;6206613;23;20055;-45
2022/01/11 05:45:56;;;;;;;7.40;5.32;;;;;;;;;;6206181;23;20017;-46
2022/01/11 05:48:22;;;;;;;8.25;5.20;;;;;;;;;;6206037;23;20009;-47
2022/01/11 05:50:47;;;;;;;10.50;6.15;;;;;;;;;;6205532;23;20024;-49
2022/01/11 05:53:12;;;;;;;8.40;5.80;;;;;;;;;;6206156;23;20044;-45
2022/01/11 05:55:38;;;;;;;9.85;5.53;;;;;;;;;;6206189;23;20079;-46
2022/01/11 05:58:03;;;;;;;9.65;4.80;;;;;;;;;;6206777;23;20019;-45
2022/01/11 06:00:28;;;;;;;7.30;5.22;;;;;;;;;;6205747;23;20375;-45
2022/01/11 06:02:55;;;;;;;12.43;5.68;;;;;;;;;;6206524;23;20474;-45
2022/01/11 06:05:20;;;;;;;7.90;5.38;;;;;;;;;;6205419;23;20012;-47
2022/01/11 06:07:46;;;;;;;8.90;5.55;;;;;;;;;;6205893;23;20451;-45
2022/01/11 06:10:11;;;;;;;8.10;5.60;;;;;;;;;;6206768;23;20027;-46
2022/01/11 06:12:36;;;;;;;9.95;5.68;;;;;;;;;;6205972;23;20024;-46
2022/01/11 06:15:02;;;;;;;9.40;4.82;;;;;;;;;;6206695;23;20062;-49
2022/01/11 06:17:27;;;;;;;8.50;4.93;;;;;;;;;;6205398;23;20470;-52
2022/01/11 06:19:53;;;;;;;10.95;6.10;;;;;;;;;;6206526;23;20059;-45
2022/01/11 06:22:18;;;;;;;9.70;6.03;;;;;;;;;;6205726;23;20475;-47
2022/01/11 06:24:43;;;;;;;9.73;5.97;;;;;;;;;;6206903;23;20024;-50
2022/01/11 06:27:08;;;;;;;8.45;5.10;;;;;;;;;;6205885;23;20126;-47
2022/01/11 06:29:34;;;;;;;9.00;5.10;;;;;;;;;;6206421;23;20428;-46
2022/01/11 06:31:59;;;;;;;9.23;6.05;;;;;;;;;;6205576;23;20019;-45
2022/01/11 06:34:24;;;;;;;9.05;5.68;;;;;;;;;;6206036;23;20019;-47
2022/01/11 06:36:49;;;;;;;10.00;5.10;;;;;;;;;;6205799;23;20458;-49
2022/01/11 06:39:15;;;;;;;8.98;5.45;;;;;;;;;;6206111;23;20012;-47
2022/01/11 06:41:40;;;;;;;5.63;4.40;;;;;;;;;;6205966;23;20009;-48
2022/01/11 06:44:06;;;;;;;7.53;4.63;;;;;;;;;;6206392;23;20465;-45
2022/01/11 06:46:31;;;;;;;7.07;4.63;;;;;;;;;;6205510;23;20016;-46
2022/01/11 06:48:57;;;;;;;6.60;4.00;;;;;;;;;;6206407;23;20083;-46
2022/01/11 06:51:22;;;;;;;8.68;5.93;;;;;;;;;;6173334;23;20037;-48
2022/01/11 06:53:47;;;;;;;6.70;4.40;;;;;;;;;;6176158;23;20023;-48
2022/01/11 06:56:13;;;;;;;8.05;4.43;;;;;;;;;;6173494;23;20096;-46
2022/01/11 06:58:38;;;;;;;6.07;3.53;;;;;;;;;;6176810;23;20028;-47
2022/01/11 07:01:04;;;;;;;5.65;3.95;;;;;;;;;;6173415;23;20356;-46
2022/01/11 07:03:29;;;;;;;6.03;4.07;;;;;;;;;;6176408;23;20021;-47
2022/01/11 07:05:54;;;;;;;4.80;3.60;;;;;;;;;;6175762;23;20017;-46
2022/01/11 07:08:20;;;;;;;5.07;3.63;;;;;;;;;;6175729;23;20016;-47
2022/01/11 07:10:45;;;;;;;7.07;4.38;;;;;;;;;;6175726;23;20088;-45
2022/01/11 07:13:10;;;;;;;5.47;3.55;;;;;;;;;;6176714;23;20092;-48
2022/01/11 07:15:36;;;;;;;7.85;4.35;;;;;;;;;;6175142;23;20013;-47
2022/01/11 07:18:07;;;;;;;6.63;4.40;;;;;;;;;;6176195;23;20047;-48
2022/01/11 07:20:33;;;;;;;5.53;3.67;;;;;;;;;;6175147;23;20628;-46
2022/01/11 07:22:59;;;;;;;5.95;3.67;;;;;;;;;;6176178;23;20067;-48
2022/01/11 07:25:25;;;;;;;8.40;4.47;;;;;;;;;;6175331;23;20398;-48
2022/01/11 07:27:50;;;;;;;10.70;3.90;;;;;;;;;;6176727;23;20044;-47
2022/01/11 07:30:15;;;;;;;6.30;3.63;;;;;;;;;;6174847;23;20021;-48
2022/01/11 07:32:41;;;;;;;5.70;3.75;;;;;;;;;;6176234;23;20585;-46
2022/01/11 07:35:06;;;;;;;5.25;3.25;;;;;;;;;;6175332;23;20013;-49
2022/01/11 07:37:31;;;;;;;6.15;3.67;;;;;;;;;;6175454;23;20013;-48
2022/01/11 07:39:56;;;;;;;5.47;3.67;;;;;;;;;;6175268;23;20013;-45
2022/01/11 07:42:22;;;;;;;5.75;3.92;;;;;;;;;;6175328;23;20092;-48
2022/01/11 07:44:51;;;;;;;4.68;3.53;;;;;;;;;;6174992;23;20085;-46
2022/01/11 07:47:16;;;;;;;5.95;3.55;;;;;;;;;;6175699;23;20440;-45
2022/01/11 07:49:41;;;;;;;5.95;3.63;;;;;;;;;;6176093;23;20013;-44
2022/01/11 07:52:06;;;;;;;8.27;4.20;;;;;;;;;;6205066;23;20028;-45
2022/01/11 07:54:32;;;;;;;5.55;3.65;;;;;;;;;;6205360;23;20021;-46
2022/01/11 07:56:57;;;;;;;5.63;3.85;;;;;;;;;;6205474;23;20451;-46
2022/01/11 07:59:22;;;;;;;7.43;4.25;;;;;;;;;;6207095;23;20039;-47
2022/01/11 08:01:48;;;;;;;5.60;3.53;;;;;;;;;;6207480;23;20011;-49
2022/01/11 08:04:13;;;;;;;9.98;4.47;;;;;;;;;;6206219;23;20020;-46
2022/01/11 08:06:38;;;;;;;7.85;3.85;;;;;;;;;;6207928;23;20009;-46
2022/01/11 08:09:04;;;;;;;4.65;3.95;;;;;;;;;;6206837;23;20043;-45
2022/01/11 08:11:29;;;;;;;5.97;3.97;;;;;;;;;;6206776;23;20016;-45
2022/01/11 08:13:54;;;;;;;8.55;5.35;;;;;;;;;;6206545;23;20017;-46
2022/01/11 08:16:20;;;;;;;5.20;3.78;;;;;;;;;;6207062;23;20016;-46
2022/01/11 08:18:45;;;;;;;3.88;3.30;;;;;;;;;;6207580;23;20017;-44
2022/01/11 08:21:10;;;;;;;6.10;3.63;;;;;;;;;;6207366;23;20037;-49
2022/01/11 08:23:35;;;;;;;5.43;3.72;;;;;;;;;;6206828;23;20100;-49
2022/01/11 08:26:01;;;;;;;5.18;3.03;;;;;;;;;;6207910;23;20099;-49
2022/01/11 08:28:26;;;;;;;5.28;3.90;;;;;;;;;;6206080;23;20044;-49
2022/01/11 08:30:52;;;;;;;5.80;3.53;;;;;;;;;;6207176;23;20028;-46
2022/01/11 08:33:17;;;;;;;4.53;3.50;;;;;;;;;;6205437;23;20025;-46
2022/01/11 08:35:43;;;;;;;5.80;3.75;;;;;;;;;;6198117;23;20371;-45
2022/01/11 08:38:08;;;;;;;6.88;3.55;;;;;;;;;;6201156;23;20012;-44
2022/01/11 08:40:33;;;;;;;6.35;3.35;;;;;;;;;;6200270;23;20075;-46
2022/01/11 08:42:59;;;;;;;3.83;3.25;;;;;;;;;;6197843;23;20013;-46
2022/01/11 08:45:24;;;;;;;6.35;3.60;;;;;;;;;;6198787;23;20543;-46
2022/01/11 08:47:49;;;;;;;4.47;3.13;;;;;;;;;;6197723;23;20024;-46
2022/01/11 08:50:15;;;;;;;4.32;3.25;;;;;;;;;;6198481;23;20044;-46
2022/01/11 08:52:41;;;;;;;4.70;3.08;;;;;;;;;;6194855;23;20078;-48
2022/01/11 08:55:07;;;;;;;6.57;3.55;;;;;;;;;;6198927;23;20013;-44
2022/01/11 08:57:33;;;;;;;6.60;3.60;;;;;;;;;;6198914;23;20005;-45
2022/01/11 08:59:58;;;;;;;5.72;3.40;;;;;;;;;;6198360;23;20111;-45
2022/01/11 09:02:24;;;;;;;7.95;3.53;;;;;;;;;;6201192;23;20044;-46
2022/01/11 09:04:52;;;;;;;7.55;3.60;;;;;;;;;;6200078;23;20112;-45
2022/01/11 09:07:17;;;;;;;6.50;3.25;;;;;;;;;;6200675;23;20013;-46
2022/01/11 09:09:42;;;;;;;4.88;3.17;;;;;;;;;;6199828;23;20028;-46
2022/01/11 09:12:11;;;;;;;5.20;2.97;;;;;;;;;;6200148;23;20019;-47
2022/01/11 09:14:36;;;;;;;4.70;2.90;;;;;;;;;;6199191;23;20794;-45
2022/01/11 09:17:02;;;;;;;3.97;2.72;;;;;;;;;;6199454;23;20020;-46
2022/01/11 09:19:28;;;;;;;3.97;2.88;;;;;;;;;;6199532;23;20013;-46
2022/01/11 09:21:53;;;;;;;3.95;3.25;;;;;;;;;;6201048;23;20020;-46
2022/01/11 09:24:19;;;;;;;4.45;3.17;;;;;;;;;;6171640;23;20023;-46
2022/01/11 09:26:45;;;;;;;6.20;3.65;;;;;;;;;;6201308;23;20009;-46
2022/01/11 09:29:11;;;;;;;4.90;3.13;;;;;;;;;;6199139;23;20044;-45
2022/01/11 09:31:36;;;;;;;6.03;3.67;;;;;;;;;;6200003;23;20016;-46
2022/01/11 09:34:01;;;;;;;4.35;2.92;;;;;;;;;;6189267;23;20076;-45
2022/01/11 09:36:27;;;;;;;3.90;2.80;;;;;;;;;;6170356;23;20019;-46
2022/01/11 09:38:52;;;;;;;4.32;3.10;;;;;;;;;;6170223;23;20005;-45
2022/01/11 09:41:17;;;;;;;4.97;2.97;;;;;;;;;;6169918;23;20463;-47
2022/01/11 09:43:43;;;;;;;4.45;3.50;;;;;;;;;;6170472;23;20020;-48
2022/01/11 09:46:08;;;;;;;5.05;3.65;;;;;;;;;;6170258;23;20016;-45
2022/01/11 09:48:34;;;;;;;4.72;2.97;;;;;;;;;;6168181;23;20012;-46
2022/01/11 09:50:59;;;;;;;4.50;3.72;;;;;;;;;;6144137;23;20037;-46
2022/01/11 09:53:25;;;;;;;4.97;3.17;;;;;;;;;;6169544;23;20021;-45
2022/01/11 09:55:50;;;;;;;6.03;4.18;;;;;;;;;;6170309;23;20017;-45
2022/01/11 09:58:15;;;;;;;6.55;3.58;;;;;;;;;;6170153;23;20013;-47
2022/01/11 10:00:41;;;;;;;6.78;3.97;;;;;;;;;;6169853;23;20005;-45
2022/01/11 10:03:07;;;;;;;5.70;4.28;;;;;;;;;;6171085;23;20009;-47
2022/01/11 10:05:33;;;;;;;7.18;3.65;;;;;;;;;;6168753;23;20059;-44
2022/01/11 10:07:58;;;;;;;5.15;3.92;;;;;;;;;;6171233;23;20521;-48
2022/01/11 10:10:25;;;;;;;5.95;4.13;;;;;;;;;;6168230;23;20343;-46
2022/01/11 10:12:51;;;;;;;7.18;4.50;;;;;;;;;;6170704;23;20468;-45
2022/01/11 10:15:35;;;;;;;6.85;4.13;;;;;;;;;;6169320;23;20017;-44
2022/01/11 10:18:02;;;;;;;6.38;4.22;;;;;;;;;;6171250;23;20009;-45
2022/01/11 10:20:27;;;;;;;6.28;4.25;;;;;;;;;;6168732;23;20013;-47
2022/01/11 10:23:01;;;;;;;6.90;4.68;;;;;;;;;;6170770;23;20017;-46
2022/01/11 10:25:30;;;;;;;5.32;4.30;;;;;;;;;;6169471;23;20013;-46
2022/01/11 10:27:57;;;;;;;7.15;4.80;;;;;;;;;;6170745;23;20017;-44
2022/01/11 10:30:23;;;;;;;7.07;5.50;;;;;;;;;;6169116;23;20013;-46
2022/01/11 10:32:50;;;;;;;9.05;5.35;;;;;;;;;;6170576;23;20083;-45
2022/01/11 10:35:19;;;;;;;8.35;5.18;;;;;;;;;;6169249;23;20019;-45
2022/01/11 10:37:46;;;;;;;8.30;5.32;;;;;;;;;;6169913;23;20009;-44
2022/01/11 10:40:16;;;;;;;7.22;5.20;;;;;;;;;;6169697;23;20020;-46
2022/01/11 10:42:52;;;;;;;9.23;6.03;;;;;;;;;;6170382;23;20013;-45
2022/01/11 10:45:24;;;;;;;10.95;5.60;;;;;;;;;;6169938;23;20108;-45
2022/01/11 10:47:50;;;;;;;9.93;6.50;;;;;;;;;;6168168;23;20503;-46
2022/01/11 10:50:22;;;;;;;9.93;5.95;;;;;;;;;;6169657;23;20021;-45
2022/01/11 10:52:48;;;;;;;8.77;6.43;;;;;;;;;;6170625;23;20051;-47
2022/01/11 10:55:17;;;;;;;9.90;6.30;;;;;;;;;;6164964;23;20009;-45
2022/01/11 10:57:47;;;;;;;11.00;6.90;;;;;;;;;;6168900;23;20064;-45
2022/01/11 11:00:13;;;;;;;10.98;7.88;;;;;;;;;;6167919;23;20070;-47
2022/01/11 11:02:39;;;;;;;15.15;7.28;;;;;;;;;;6168810;23;20608;-46
2022/01/11 11:05:24;;;;;;;14.05;7.55;;;;;;;;;;6170822;23;20013;-47
2022/01/11 11:08:09;;;;;;;10.35;6.93;;;;;;;;;;6197917;23;20013;-45
2022/01/11 11:10:36;;;;;;;12.68;7.07;;;;;;;;;;6198551;23;20011;-51
2022/01/11 11:13:02;;;;;;;11.52;6.60;;;;;;;;;;6200873;23;20024;-48
2022/01/11 11:15:28;;;;;;;14.52;7.32;;;;;;;;;;6197508;23;20071;-44
2022/01/11 11:17:54;;;;;;;9.13;6.53;;;;;;;;;;6199238;23;20021;-46
2022/01/11 11:20:19;;;;;;;11.50;6.78;;;;;;;;;;6198805;23;20023;-44
2022/01/11 11:22:44;;;;;;;10.48;6.65;;;;;;;;;;6198592;23;20036;-45
2022/01/11 11:25:10;;;;;;;10.95;6.70;;;;;;;;;;6199253;23;20017;-44
2022/01/11 11:27:35;;;;;;;10.45;7.45;;;;;;;;;;6172190;23;20520;-44
2022/01/11 11:30:00;;;;;;;11.88;7.25;;;;;;;;;;6199046;23;20021;-43
2022/01/11 11:32:26;;;;;;;11.93;7.75;;;;;;;;;;6172917;23;20108;-46
2022/01/11 11:34:52;;;;;;;8.95;6.45;;;;;;;;;;6201570;23;20094;-49
2022/01/11 11:37:19;;;;;;;10.05;6.25;;;;;;;;;;6201268;23;20779;-46
2022/01/11 11:39:46;;;;;;;7.93;5.90;;;;;;;;;;6201333;23;20012;-47
2022/01/11 11:42:14;;;;;;;7.70;5.75;;;;;;;;;;6201177;23;20013;-47
2022/01/11 11:44:44;;;;;;;9.63;6.17;;;;;;;;;;6202429;23;20051;-47
2022/01/11 11:47:10;;;;;;;9.38;5.75;;;;;;;;;;6201491;23;20443;-46
2022/01/11 11:49:52;;;;;;;8.80;5.35;;;;;;;;;;6200974;23;20040;-47
2022/01/11 11:52:28;;;;;;;8.77;5.75;;;;;;;;;;6140742;23;20048;-44
2022/01/11 11:54:56;;;;;;;8.65;5.80;;;;;;;;;;6141583;23;20017;-46
2022/01/11 11:57:23;;;;;;;11.85;6.78;;;;;;;;;;6142117;23;20021;-47
2022/01/11 11:59:59;;;;;;;7.97;5.28;;;;;;;;;;6140279;23;20076;-48
2022/01/11 12:02:29;;;;;;;9.27;5.95;;;;;;;;;;6141193;23;20087;-46
2022/01/11 12:04:55;;;;;;;8.48;5.35;;;;;;;;;;6141071;23;20028;-49
2022/01/11 12:07:32;;;;;;;9.15;5.88;;;;;;;;;;6141724;23;20010;-50
2022/01/11 12:09:58;;;;;;;9.93;6.55;;;;;;;;;;6142078;23;20113;-46
2022/01/11 12:12:42;;;;;;;8.25;5.80;;;;;;;;;;6140480;23;20053;-48
2022/01/11 12:15:23;;;;;;;9.23;6.55;;;;;;;;;;6142257;23;20121;-46
2022/01/11 12:18:08;;;;;;;7.18;5.00;;;;;;;;;;6141570;23;20017;-48
2022/01/11 12:20:44;;;;;;;8.40;5.13;;;;;;;;;;6105713;23;20040;-46
2022/01/11 12:23:11;;;;;;;7.68;4.88;;;;;;;;;;6113157;23;20014;-48
2022/01/11 12:25:42;;;;;;;7.25;5.55;;;;;;;;;;6111350;23;20453;-49
2022/01/11 12:28:13;;;;;;;8.02;5.40;;;;;;;;;;6113239;23;20069;-50
2022/01/11 12:30:38;;;;;;;7.68;5.32;;;;;;;;;;6112044;23;20034;-48
2022/01/11 12:33:09;;;;;;;10.20;5.38;;;;;;;;;;6112149;23;20072;-48
2022/01/11 12:35:49;;;;;;;9.13;5.25;;;;;;;;;;6111377;23;20101;-48
2022/01/11 12:38:14;;;;;;;7.28;5.35;;;;;;;;;;6111556;23;20014;-47
2022/01/11 12:40:40;;;;;;;7.05;5.40;;;;;;;;;;6112433;23;20010;-46
2022/01/11 12:43:16;;;;;;;3.22;2.72;;;;;;;;;;6111595;23;20010;-47
2022/01/11 12:46:01;;;;;;;4.38;3.20;;;;;;;;;;6140765;23;20468;-47
2022/01/11 12:48:45;;;;;;;3.65;2.50;;;;;;;;;;6141605;23;20076;-47
2022/01/11 12:51:29;;;;;;;1.95;1.73;;;;;;;;;;6175468;23;20035;-49
2022/01/11 12:54:08;;;;;;;2.38;2.03;;;;;;;;;;6180363;23;20025;-47
2022/01/11 12:56:36;;;;;;;3.60;2.42;;;;;;;;;;6170712;23;20496;-47
2022/01/11 12:59:03;;;;;;;2.08;1.70;;;;;;;;;;6171015;23;20005;-46
2022/01/11 13:01:28;;;;;;;2.30;1.70;;;;;;;;;;6169284;23;20023;-49
2022/01/11 13:03:57;;;;;;;1.77;1.60;;;;;;;;;;6171087;23;20017;-46
2022/01/11 13:06:28;;;;;;;1.83;1.60;;;;;;;;;;6170883;23;20043;-47
2022/01/11 13:08:53;;;;;;;4.80;2.08;;;;;;;;;;6169980;23;20383;-46
2022/01/11 13:11:20;;;;;;;2.45;1.50;;;;;;;;;;6169186;23;20455;-46
2022/01/11 13:13:53;;;;;;;1.65;1.55;;;;;;;;;;6170259;23;20024;-47
2022/01/11 13:16:22;;;;;;;1.73;1.30;;;;;;;;;;6169208;23;20013;-47
2022/01/11 13:18:47;;;;;;;2.67;1.63;;;;;;;;;;6143729;23;20016;-46
2022/01/11 13:21:12;;;;;;;1.60;1.17;;;;;;;;;;6169178;23;20013;-46
2022/01/11 13:24:13;;;;;;;1.95;1.00;;;;;;;;;;6169795;23;20016;-46
2022/01/11 13:26:30;;;;;;;2.20;1.00;;;;;;;;;;6159621;23;20483;-46
2022/01/11 13:28:57;;;;;;;2.58;1.15;;;;;;;;;;6168121;23;20024;-47
2022/01/11 13:31:26;;;;;;;1.38;1.20;;;;;;;;;;6166032;23;20569;-48
2022/01/11 13:34:00;;;;;;;1.75;1.02;;;;;;;;;;6167569;23;20728;-46
2022/01/11 13:36:34;;;;;;;1.45;1.30;;;;;;;;;;6167705;23;20573;-46
2022/01/11 13:39:04;;;;;;;2.55;1.38;;;;;;;;;;6166136;23;20017;-49
2022/01/11 13:41:30;;;;;;;4.45;1.70;;;;;;;;;;6167462;23;20074;-46
2022/01/11 13:43:59;;;;;;;2.63;1.75;;;;;;;;;;6167650;23;20013;-45
2022/01/11 13:46:26;;;;;;;1.40;1.25;;;;;;;;;;6166913;23;20355;-46
2022/01/11 13:48:52;;;;;;;2.50;1.63;;;;;;;;;;6165089;23;20423;-47
2022/01/11 13:51:24;;;;;;;2.05;1.58;;;;;;;;;;6164143;23;20091;-48
2022/01/11 13:53:56;;;;;;;1.27;1.17;;;;;;;;;;6166463;23;20024;-46
2022/01/11 13:56:21;;;;;;;2.50;1.27;;;;;;;;;;6167365;23;20013;-46
2022/01/11 13:58:48;;;;;;;3.08;1.42;;;;;;;;;;6168288;23;20514;-47
2022/01/11 14:01:15;;;;;;;2.53;1.50;;;;;;;;;;6168596;23;20084;-47
2022/01/11 14:03:41;;;;;;;1.55;1.33;;;;;;;;;;6168616;23;20115;-46
2022/01/11 14:06:13;;;;;;;2.00;1.50;;;;;;;;;;6169315;23;20025;-46
2022/01/11 14:08:43;;;;;;;1.00;1.00;;;;;;;;;;6198335;23;20067;-46
2022/01/11 14:11:10;;;;;;;1.90;1.05;;;;;;;;;;6198971;23;20036;-47
2022/01/11 14:13:35;;;;;;;2.15;1.67;;;;;;;;;;6198838;23;20020;-46
2022/01/11 14:16:11;;;;;;;1.90;1.80;;;;;;;;;;6199621;23;20024;-47
2022/01/11 14:18:37;;;;;;;2.47;1.85;;;;;;;;;;6197959;23;20062;-47
2022/01/11 14:21:12;;;;;;;1.30;1.20;;;;;;;;;;6199954;23;20015;-46
2022/01/11 14:23:38;;;;;;;1.60;1.35;;;;;;;;;;6199088;23;20024;-47
2022/01/11 14:26:04;;;;;;;3.00;1.38;;;;;;;;;;6197239;23;20117;-46
2022/01/11 14:28:32;;;;;;;5.88;1.35;;;;;;;;;;6200043;23;20059;-46
2022/01/11 14:30:59;;;;;;;7.03;1.75;;;;;;;;;;6197197;23;20326;-46
2022/01/11 14:33:25;;;;;;;2.10;1.48;;;;;;;;;;6196088;23;20028;-47
2022/01/11 14:35:55;;;;;;;4.93;1.80;;;;;;;;;;6195238;23;20009;-48
2022/01/11 14:38:20;;;;;;;3.25;1.63;;;;;;;;;;6197928;23;20324;-49